Latest Weather Observations for Tunnack

IDT60801

Issued at 6:01 am EST Thursday 2 July 2015 (issued every 30 minutes, with the page automatically refreshed every 10 minutes)

About weather observations | Map of weather stations | Latest weather observations for TAS | Other Formats
Station Details ID: 094195 Name: TUNNACK FIRE STATION Lat: -42.45 Lon: 147.46 Height: 461.5 m
Data from the previous 72 hours. | See also: Recent months at Tunnack
Date/Time
EST
Temp
°C
App
Temp
°C
Dew
Point
Rel
Hum
%
Delta-T
°C
Wind Press
QNH
hPa
Press
MSL
hPa
Rain
since 9 am
mm
Dir
 
Spd
km/h
Gust
km/h
Spd
kts
Gust
kts
02/06:00am 1.6 -4.0 0.0 89 0.6 WNW 19 24 10 13 1007.6 1008.6 2.0
02/05:30am 1.8 -2.7 -0.3 86 0.8 W 13 20 7 11 1007.7 1008.7 2.0
02/05:00am 1.6 -2.5 -0.3 87 0.7 W 11 20 6 11 1007.3 1008.3 2.0
02/04:30am 1.6 -3.3 -0.5 86 0.8 W 15 28 8 15 1006.8 1007.8 2.0
02/04:00am 2.1 -4.2 -0.8 81 1.1 W 22 39 12 21 1006.4 1007.3 2.0
02/03:30am 2.4 -4.3 -0.9 79 1.2 W 24 39 13 21 1006.1 1007.0 2.0
02/03:00am 2.9 -2.9 0.0 81 1.1 W 20 39 11 21 1005.8 1006.7 2.0
02/02:30am 3.2 -2.9 0.3 81 1.1 W 22 33 12 18 1005.8 1006.7 2.0
02/02:00am 3.2 -3.3 0.4 82 1.1 W 24 41 13 22 1005.7 1006.6 2.0
02/01:30am 3.6 -4.3 1.0 83 1.0 W 32 50 17 27 1005.2 1006.2 2.0
02/01:21am 3.7 -3.4 1.3 84 1.0 W 28 50 15 27 1005.1 1006.1 2.0
02/01:00am 3.3 -2.3 1.0 85 0.9 W 20 32 11 17 1005.1 1006.1 2.0
02/12:34am 4.6 -2.4 1.8 82 1.2 W 28 63 15 34 1005.6 1006.5 2.0
02/12:30am 4.6 -2.0 2.0 83 1.1 WNW 26 43 14 23 1005.4 1006.4 2.0
02/12:00am 3.4 -2.0 2.4 93 0.4 WNW 20 28 11 15 1005.7 1006.6 2.0
 
Date/Time
EST
Temp
°C
App
Temp
°C
Dew
Point
Rel
Hum
%
Delta-T
°C
Wind Press
QNH
hPa
Press
MSL
hPa
Rain
since 9 am
mm
Dir
 
Spd
km/h
Gust
km/h
Spd
kts
Gust
kts
01/11:30pm 4.0 -1.7 2.8 92 0.5 WNW 22 41 12 22 1005.4 1006.4 2.0
01/11:18pm 4.5 -2.2 3.5 93 0.4 W 28 46 15 25 1005.9 1006.8 1.8
01/11:00pm 4.4 0.2 3.8 96 0.3 WNW 15 22 8 12 1005.3 1006.3 1.8
01/10:30pm 4.0 -0.7 3.4 96 0.3 WNW 17 22 9 12 1005.7 1006.6 1.8
01/10:00pm 3.8 -0.6 2.9 94 0.4 W 15 26 8 14 1005.6 1006.5 1.8
01/09:30pm 4.9 0.4 4.3 96 0.3 W 17 35 9 19 1006.5 1007.5 1.8
01/09:00pm 6.0 0.7 5.0 93 0.4 WSW 22 35 12 19 1007.2 1008.2 1.0
01/08:30pm 6.7 1.5 5.3 91 0.6 NW 22 35 12 19 1006.9 1007.9 0.6
01/08:00pm 7.1 -0.8 4.6 84 1.1 N 35 48 19 26 1005.2 1006.2 0.0
01/07:30pm 6.7 -0.4 3.7 81 1.3 NNW 30 43 16 23 1005.7 1006.6 0.0
01/07:00pm 7.2 -0.3 3.3 76 1.7 N 32 46 17 25 1005.2 1006.2 0.0
01/06:43pm 7.2 -1.0 2.9 74 1.9 NNW 35 54 19 29 1005.9 1006.8 0.0
01/06:30pm 8.4 -1.1 2.0 64 2.7 NW 41 54 22 29 1006.3 1007.2 0.0
01/06:00pm 8.3 -1.8 1.7 63 2.8 NW 44 59 24 32 1006.4 1007.3 0.0
01/05:30pm 8.6 -1.2 2.4 65 2.7 NW 43 61 23 33 1006.8 1007.8 0.0
01/05:20pm 8.4 0.2 2.8 68 2.4 NNW 35 56 19 30 1007.3 1008.3 0.0
01/05:00pm 7.9 1.3 4.3 78 1.6 NNW 28 43 15 23 1008.0 1008.9 0.0
01/04:30pm 7.2 2.8 4.5 83 1.2 N 17 24 9 13 1008.8 1009.8 0.0
01/04:00pm 9.0 1.5 3.6 69 2.4 NNW 32 46 17 25 1009.3 1010.3 0.0
01/03:52pm 9.1 2.4 3.7 69 2.4 NNW 28 50 15 27 1009.6 1010.6 0.0
01/03:30pm 8.3 3.2 5.8 84 1.2 N 22 28 12 15 1010.2 1011.2 0.0
01/03:00pm 7.8 2.1 4.9 82 1.3 N 24 35 13 19 1010.5 1011.5 0.0
01/02:30pm 7.7 1.6 4.8 82 1.3 NNW 26 35 14 19 1010.8 1011.8 0.0
01/02:00pm 7.3 0.8 4.9 85 1.1 N 28 39 15 21 1011.4 1012.4 0.0
01/01:30pm 6.3 1.1 5.6 95 0.3 N 22 28 12 15 1012.3 1013.4 0.0
01/01:00pm 4.3 -2.3 4.2 99 0.0 N 28 39 15 21 1013.3 1014.3 0.0
01/12:30pm 4.2 -2.9 3.5 95 0.3 N 30 39 16 21 1014.0 1015.1 0.0
01/12:00pm 5.0 -1.4 3.3 89 0.7 N 26 33 14 18 1015.0 1016.0 0.0
01/11:30am 4.8 0.5 3.1 89 0.7 N 15 24 8 13 1015.9 1017.0 0.0
01/11:00am 4.3 -0.4 3.1 92 0.5 N 17 24 9 13 1017.1 1018.1 0.0
01/10:30am 4.7 1.0 4.3 97 0.2 NNE 13 15 7 8 1017.9 1019.0 0.0
01/10:00am 2.6 -1.9 2.3 98 0.1 NNE 15 19 8 10 1018.5 1019.6 0.0
01/09:30am 2.1 -1.3 2.0 99 0.0 N 9 15 5 8 1018.8 1019.8 0.0
01/09:00am 0.7 -2.3 0.6 99 0.0 E 6 9 3 5 1019.0 1020.0 0.0
01/08:30am 0.1 -3.0 0.0 99 0.0 NE 6 9 3 5 1019.1 1020.1 0.0
01/08:00am -0.4 -4.2 -0.5 99 0.0 E 9 11 5 6 1019.1 1020.1 0.0
01/07:30am -0.5 -3.9 -0.6 99 0.0 E 7 11 4 6 1019.5 1020.5 0.0
01/07:00am 0.2 -4.6 0.1 99 0.0 NNE 15 17 8 9 1019.7 1020.7 0.0
01/06:30am -0.1 -3.3 -0.2 99 0.0 E 6 7 3 4 1020.0 1021.0 0.0
01/06:00am 0.5 -3.6 -0.1 96 0.2 N 11 13 6 7 1020.2 1021.2 0.0
01/05:30am 1.8 -2.9 0.6 92 0.5 NNW 15 17 8 9 1020.3 1021.3 0.0
01/05:00am 2.7 -3.0 0.8 87 0.7 NNW 20 24 11 13 1020.3 1021.3 0.0
01/04:30am 3.4 -1.7 0.8 83 1.0 NNW 17 19 9 10 1020.5 1021.5 0.0
01/04:00am 3.4 -1.6 1.6 88 0.7 NNW 17 22 9 12 1020.6 1021.6 0.0
01/03:30am 2.8 -1.2 2.7 99 0.0 NNW 13 17 7 9 1021.0 1022.0 0.0
01/03:00am 0.3 -2.0 0.2 99 0.0 ENE 2 7 1 4 1021.3 1022.4 0.0
01/02:30am -0.2 -3.6 -0.3 99 0.0 ENE 7 9 4 5 1021.8 1022.8 0.0
01/02:00am 0.6 -3.0 0.5 99 0.0 E 9 11 5 6 1022.0 1023.0 0.0
01/01:30am 0.0 -3.3 -0.1 99 0.0 ESE 7 9 4 5 1022.2 1023.2 0.0
01/01:00am -0.3 -3.5 -0.4 99 0.0 NE 6 7 3 4 1022.5 1023.5 0.0
01/12:30am -0.7 -3.9 -0.8 99 0.0 NNW 6 7 3 4 1022.8 1023.8 0.0
01/12:00am 0.0 -2.4 -0.1 99 0.0 NW 2 7 1 4 1023.0 1024.1 0.0
 
Date/Time
EST
Temp
°C
App
Temp
°C
Dew
Point
Rel
Hum
%
Delta-T
°C
Wind Press
QNH
hPa
Press
MSL
hPa
Rain
since 9 am
mm
Dir
 
Spd
km/h
Gust
km/h
Spd
kts
Gust
kts
30/11:30pm 0.0 -3.1 -0.1 99 0.0 W 6 11 3 6 1023.2 1024.3 0.0
30/11:00pm -0.6 -4.0 -0.9 98 0.1 ENE 7 9 4 5 1023.5 1024.6 0.0
30/10:30pm -1.6 -5.0 -2.4 94 0.2 NE 6 7 3 4 1023.7 1024.8 0.0
30/10:00pm 0.8 -1.5 0.1 95 0.3 NE 2 9 1 5 1023.6 1024.7 0.0
30/09:30pm 3.0 0.2 2.3 95 0.3 W 6 9 3 5 1023.6 1024.7 0.0
30/09:00pm 2.7 -0.2 1.7 93 0.4 E 6 9 3 5 1023.5 1024.6 0.0
30/08:30pm 2.4 -0.8 0.8 89 0.6 SW 7 9 4 5 1023.6 1024.7 0.0
30/08:00pm 3.0 0.0 0.7 85 0.9 WSW 6 9 3 5 1023.6 1024.7 0.0
30/07:30pm 4.9 0.1 2.6 85 1.0 NW 17 20 9 11 1023.4 1024.5 0.0
30/07:00pm 3.6 0.8 1.8 88 0.7 N 6 7 3 4 1023.5 1024.6 0.0
30/06:30pm 5.1 1.6 1.2 76 1.6 WNW 9 11 5 6 1023.4 1024.5 0.0
30/06:00pm 5.8 1.6 1.5 74 1.8 WNW 13 15 7 8 1023.4 1024.5 0.0
30/05:30pm 6.5 2.7 1.8 72 2.0 W 11 15 6 8 1023.3 1024.4 0.0
30/05:00pm 7.1 4.4 2.4 72 2.0 NE 6 7 3 4 1022.9 1023.9 0.0
30/04:30pm 8.3 4.2 2.5 67 2.5 WNW 13 20 7 11 1022.8 1023.8 0.0
30/04:00pm 9.8 5.8 3.1 63 3.0 W 13 20 7 11 1022.7 1023.7 0.0
30/03:30pm 10.5 6.5 2.8 59 3.4 W 13 24 7 13 1022.7 1023.7 0.0
30/03:00pm 10.4 5.2 2.5 58 3.5 W 19 26 10 14 1022.7 1023.7 0.0
30/02:30pm 11.4 6.4 3.7 59 3.5 WNW 19 28 10 15 1022.7 1023.7 0.0
30/02:00pm 11.1 6.1 3.4 59 3.5 W 19 28 10 15 1022.8 1023.8 0.0
30/01:30pm 11.1 6.9 3.9 61 3.3 W 15 22 8 12 1023.0 1024.1 0.0
30/01:00pm 10.9 6.4 4.4 64 3.0 WNW 17 26 9 14 1023.1 1024.2 0.0
30/12:30pm 10.3 6.2 4.2 66 2.8 WNW 15 22 8 12 1023.3 1024.4 0.0
30/12:00pm 10.0 5.5 4.2 67 2.6 WNW 17 24 9 13 1023.6 1024.7 0.0
30/11:30am 9.8 5.6 4.0 67 2.6 WNW 15 20 8 11 1024.2 1025.2 0.0
30/11:00am 8.9 5.7 3.1 67 2.5 NNW 9 24 5 13 1024.5 1025.5 0.0
30/10:30am 8.8 6.9 2.6 65 2.7 NE 2 7 1 4 1024.9 1026.0 0.0
30/10:00am 8.0 5.2 2.3 67 2.4 NNE 6 7 3 4 1024.9 1026.0 0.0
30/09:30am 6.1 3.7 2.4 77 1.6 NE 4 9 2 5 1024.8 1025.9 0.0
30/09:00am 4.0 1.4 1.2 82 1.1 E 4 7 2 4 1024.7 1025.7 0.0
30/08:30am 3.1 0.4 0.5 83 1.0 E 4 7 2 4 1024.5 1025.5 0.0
30/08:00am 2.8 -0.5 -0.1 81 1.1 W 7 13 4 7 1024.4 1025.4 0.0
30/07:30am 2.6 -2.6 0.2 84 0.9 WNW 17 22 9 12 1024.3 1025.3 0.0
30/07:00am 2.9 -3.3 0.0 81 1.1 WNW 22 26 12 14 1024.1 1025.1 0.0
30/06:30am 3.5 -2.2 0.4 80 1.2 WNW 20 28 11 15 1024.0 1025.0 0.0
30/06:00am 1.5 -2.5 -1.9 78 1.2 WNW 9 11 5 6 1023.7 1024.8 0.0
30/05:30am 4.2 0.3 0.9 79 1.3 W 11 15 6 8 1023.7 1024.8 0.0
30/05:00am 1.4 -1.6 -1.8 79 1.1 WNW 4 9 2 5 1023.5 1024.6 0.0
30/04:30am 1.3 -1.6 -0.8 86 0.8 SW 4 9 2 5 1023.5 1024.6 0.0
30/04:00am 1.2 -1.6 -0.3 90 0.6 SW 4 6 2 3 1023.6 1024.7 0.0
30/03:30am 1.3 -1.5 -0.3 89 0.6 WSW 4 7 2 4 1023.9 1024.9 0.0
30/03:00am 1.4 -1.9 0.2 92 0.5 ESE 7 9 4 5 1024.1 1025.1 0.0
30/02:30am 1.1 -2.1 -0.5 89 0.6 NE 6 7 3 4 1024.3 1025.3 0.0
30/02:00am 1.5 -1.7 -0.7 85 0.8 ENE 6 7 3 4 1024.2 1025.2 0.0
30/01:30am 3.0 -0.1 -0.1 80 1.2 NE 6 7 3 4 1024.4 1025.4 0.0
30/01:00am 4.0 0.7 -0.2 74 1.6 NNE 7 15 4 8 1024.5 1025.5 0.0
30/12:30am 5.4 0.0 1.3 75 1.7 NW 19 24 10 13 1024.6 1025.6 0.0
30/12:00am 4.6 0.7 1.3 79 1.3 NNW 11 17 6 9 1024.7 1025.7 0.0
 
Date/Time
EST
Temp
°C
App
Temp
°C
Dew
Point
Rel
Hum
%
Delta-T
°C
Wind Press
QNH
hPa
Press
MSL
hPa
Rain
since 9 am
mm
Dir
 
Spd
km/h
Gust
km/h
Spd
kts
Gust
kts
29/11:30pm 4.9 2.1 1.9 81 1.2 N 6 20 3 11 1024.7 1025.7 0.0
29/11:00pm 5.6 2.2 1.9 77 1.5 N 9 15 5 8 1024.8 1025.9 0.0
29/10:30pm 5.1 1.6 1.0 75 1.7 NNE 9 13 5 7 1025.0 1026.1 0.0
29/10:00pm 5.7 2.2 1.4 74 1.7 N 9 15 5 8 1025.1 1026.2 0.0
29/09:30pm 6.6 3.2 1.7 71 2.0 N 9 13 5 7 1025.2 1026.3 0.0
29/09:00pm 6.7 3.3 2.0 72 2.0 NW 9 17 5 9 1025.2 1026.3 0.0
29/08:30pm 6.6 2.4 1.7 71 2.0 WNW 13 20 7 11 1025.3 1026.4 0.0
29/08:00pm 6.8 3.4 2.1 72 2.0 W 9 20 5 11 1025.2 1026.3 0.0
29/07:30pm 7.7 2.4 2.8 71 2.1 W 20 28 11 15 1025.2 1026.3 0.0
29/07:00pm 8.1 2.4 2.8 69 2.3 W 22 39 12 21 1025.1 1026.2 0.0
29/06:30pm 7.3 1.5 2.4 71 2.1 WNW 22 32 12 17 1025.2 1026.3 0.0
29/06:00pm 7.2 3.0 1.9 69 2.2 WNW 13 20 7 11 1025.1 1026.2 0.0
29/05:30pm 9.5 6.8 3.7 67 2.6 N 7 17 4 9 1025.1 1026.2 0.0
29/05:00pm 8.7 6.0 3.9 72 2.1 W 7 11 4 6 1025.1 1026.2 0.0
29/04:30pm 9.7 4.7 4.5 70 2.4 WNW 20 26 11 14 1024.8 1025.9 0.0
29/04:00pm 11.0 4.5 4.7 65 2.9 WNW 28 35 15 19 1024.7 1025.7 0.0
29/03:30pm 11.8 3.9 4.5 61 3.4 WNW 35 44 19 24 1024.4 1025.4 0.0
29/03:00pm 12.5 6.7 4.5 58 3.7 WNW 24 35 13 19 1024.3 1025.3 0.0
29/02:30pm 13.1 7.8 4.8 57 3.9 WNW 22 33 12 18 1024.1 1025.1 0.0
29/02:00pm 13.2 7.4 4.4 55 4.1 WNW 24 39 13 21 1024.1 1025.1 0.0
29/01:30pm 13.2 6.3 4.4 55 4.1 WNW 30 43 16 23 1024.1 1025.1 0.0
29/01:00pm 12.8 6.5 3.5 53 4.2 NW 26 39 14 21 1024.5 1025.5 0.0
29/12:30pm 12.3 6.9 4.3 58 3.7 NW 22 33 12 18 1024.8 1025.9 0.0
29/12:00pm 11.8 5.2 4.3 60 3.5 NW 28 39 15 21 1025.1 1026.2 0.0
29/11:30am 11.2 5.1 4.7 64 3.0 NW 26 33 14 18 1025.5 1026.6 0.0
29/11:00am 10.7 4.6 4.8 67 2.7 NW 26 35 14 19 1025.9 1027.0 0.0
29/10:30am 10.1 4.0 4.7 69 2.5 NW 26 33 14 18 1026.3 1027.3 0.0
29/10:00am 9.9 3.8 4.9 71 2.3 WNW 26 39 14 21 1026.3 1027.3 0.0
29/09:30am 9.3 3.6 4.7 73 2.1 NW 24 35 13 19 1026.2 1027.2 0.0
29/09:00am 8.6 3.6 4.8 77 1.7 WNW 20 28 11 15 1026.2 1027.2 0.0
29/08:30am 8.0 4.2 4.0 76 1.8 W 13 26 7 14 1026.0 1027.1 0.0
29/08:00am 7.9 4.4 3.4 73 2.0 WNW 11 26 6 14 1025.7 1026.8 0.0
29/07:30am 8.1 2.9 3.6 73 2.0 W 20 33 11 18 1025.4 1026.5 0.0
29/07:00am 8.1 1.8 3.9 75 1.9 W 26 39 14 21 1025.2 1026.3 0.0
29/06:30am 8.3 0.4 4.1 75 1.9 WNW 35 61 19 33 1024.7 1025.7 0.0
29/06:10am 7.8 0.4 4.0 77 1.7 WNW 32 50 17 27 1024.6 1025.6 0.0

Other Formats:

Comma delimited format used in spreadsheet applications
http://www.bom.gov.au/fwo/IDT60801/IDT60801.94960.axf

JavaScript Object Notation format (JSON) in row-major order
http://www.bom.gov.au/fwo/IDT60801/IDT60801.94960.json